DLH648 UAAA-UACC
Flight info
| Callsign | DLH648 |
|---|---|
| Flight time | 1h 23m |
| Altitude | 40000 |
| Route | ETEDA1J ETEDA W333 BANOS BANOS1D |
| Aircraft | A346/H-SDE2E3FGHIJ3J4J5M1RWXY/LB1D1 |
Departure
| Time | 2026-05-04 18:23 |
|---|---|
| Airport | Almaty International Airport (UAAA) |
Arrival
| Time | 2026-05-04 19:47 |
|---|---|
| Airport | Nursultan Nazarbayev International Airport (UACC) |
| Time | Latitude | Longitude | Altitude | Speed | Heading |
|---|---|---|---|---|---|
| 2026-05-04 17:54 | 43.34736 | 77.01299 | 2232 ft | 0 kts | 244° |
| 2026-05-04 18:10 | 43.34739 | 77.01308 | 2234 ft | 2 kts | 243° |
| 2026-05-04 18:10 | 43.34745 | 77.01325 | 2234 ft | 2 kts | 242° |
| 2026-05-04 18:11 | 43.34752 | 77.01343 | 2233 ft | 2 kts | 240° |
| 2026-05-04 18:11 | 43.34760 | 77.01361 | 2233 ft | 2 kts | 239° |
| 2026-05-04 18:11 | 43.34768 | 77.01379 | 2231 ft | 2 kts | 239° |
| 2026-05-04 18:11 | 43.34775 | 77.01396 | 2230 ft | 2 kts | 239° |
| 2026-05-04 18:12 | 43.34783 | 77.01414 | 2229 ft | 2 kts | 236° |
| 2026-05-04 18:12 | 43.34792 | 77.01432 | 2229 ft | 2 kts | 234° |
| 2026-05-04 18:12 | 43.34801 | 77.01450 | 2228 ft | 2 kts | 236° |
| 2026-05-04 18:12 | 43.34809 | 77.01464 | 2228 ft | 0 kts | 238° |
| 2026-05-04 18:13 | 43.34811 | 77.01470 | 2228 ft | 0 kts | 241° |
| 2026-05-04 18:13 | 43.34811 | 77.01469 | 2228 ft | 0 kts | 241° |
| 2026-05-04 18:15 | 43.34804 | 77.01453 | 2228 ft | 7 kts | 240° |
| 2026-05-04 18:15 | 43.34689 | 77.01437 | 2231 ft | 10 kts | 161° |
| 2026-05-04 18:15 | 43.34612 | 77.01463 | 2234 ft | 12 kts | 168° |
| 2026-05-04 18:16 | 43.34589 | 77.01470 | 2235 ft | 0 kts | 165° |
| 2026-05-04 18:16 | 43.34569 | 77.01478 | 2235 ft | 4 kts | 161° |
| 2026-05-04 18:16 | 43.34533 | 77.01541 | 2236 ft | 15 kts | 106° |
| 2026-05-04 18:17 | 43.34510 | 77.01962 | 2235 ft | 14 kts | 93° |
| 2026-05-04 18:17 | 43.34540 | 77.02080 | 2236 ft | 14 kts | 33° |
| 2026-05-04 18:17 | 43.34728 | 77.02174 | 2230 ft | 0 kts | 19° |
| 2026-05-04 18:18 | 43.34733 | 77.02177 | 2230 ft | 4 kts | 20° |
| 2026-05-04 18:18 | 43.34777 | 77.02270 | 2231 ft | 19 kts | 83° |
| 2026-05-04 18:18 | 43.34774 | 77.02441 | 2233 ft | 0 kts | 95° |
| 2026-05-04 18:18 | 43.34772 | 77.02465 | 2233 ft | 7 kts | 94° |
| 2026-05-04 18:19 | 43.34906 | 77.02866 | 2231 ft | 35 kts | 56° |
| 2026-05-04 18:19 | 43.35059 | 77.03177 | 2231 ft | 44 kts | 56° |
| 2026-05-04 18:19 | 43.35247 | 77.03558 | 2235 ft | 48 kts | 56° |
| 2026-05-04 18:20 | 43.35432 | 77.03931 | 2237 ft | 47 kts | 56° |
| 2026-05-04 18:20 | 43.35618 | 77.04305 | 2240 ft | 47 kts | 56° |
| 2026-05-04 18:20 | 43.35805 | 77.04682 | 2242 ft | 47 kts | 56° |
| 2026-05-04 18:20 | 43.35994 | 77.05063 | 2242 ft | 48 kts | 55° |
| 2026-05-04 18:21 | 43.36194 | 77.05471 | 2244 ft | 55 kts | 57° |
| 2026-05-04 18:21 | 43.36404 | 77.05882 | 2245 ft | 40 kts | 55° |
| 2026-05-04 18:21 | 43.36495 | 77.06074 | 2247 ft | 13 kts | 78° |
| 2026-05-04 18:21 | 43.36461 | 77.06173 | 2250 ft | 11 kts | 145° |
| 2026-05-04 18:22 | 43.36381 | 77.06194 | 2251 ft | 13 kts | 185° |
| 2026-05-04 18:22 | 43.36289 | 77.06117 | 2252 ft | 11 kts | 234° |
| 2026-05-04 18:22 | 43.36263 | 77.06066 | 2251 ft | 30 kts | 234° |
| 2026-05-04 18:22 | 43.35988 | 77.05518 | 2246 ft | 106 kts | 236° |
| 2026-05-04 18:23 | 43.35453 | 77.04435 | 2245 ft | 166 kts | 235° |
| 2026-05-04 18:23 | 43.34763 | 77.03019 | 2688 ft | 180 kts | 236° |
| 2026-05-04 18:23 | 43.34074 | 77.01611 | 3314 ft | 182 kts | 236° |
| 2026-05-04 18:23 | 43.33383 | 77.00166 | 3979 ft | 185 kts | 237° |
| 2026-05-04 18:24 | 43.32684 | 76.98638 | 4406 ft | 196 kts | 238° |
| 2026-05-04 18:24 | 43.31941 | 76.97002 | 4740 ft | 213 kts | 238° |
| 2026-05-04 18:24 | 43.31152 | 76.95194 | 5082 ft | 230 kts | 245° |
| 2026-05-04 18:24 | 43.30885 | 76.92962 | 5371 ft | 249 kts | 280° |
| 2026-05-04 18:25 | 43.31613 | 76.90775 | 5799 ft | 264 kts | 316° |
| 2026-05-04 18:25 | 43.33155 | 76.89437 | 6570 ft | 265 kts | 338° |
| 2026-05-04 18:25 | 43.34822 | 76.88416 | 7431 ft | 267 kts | 336° |
| 2026-05-04 18:25 | 43.36497 | 76.87334 | 8284 ft | 270 kts | 336° |
| 2026-05-04 18:26 | 43.38177 | 76.86223 | 9091 ft | 272 kts | 335° |
| 2026-05-04 18:26 | 43.39881 | 76.85082 | 9773 ft | 275 kts | 335° |
| 2026-05-04 18:26 | 43.41594 | 76.83931 | 10098 ft | 276 kts | 335° |
| 2026-05-04 18:26 | 43.43322 | 76.82769 | 10147 ft | 276 kts | 335° |
| 2026-05-04 18:27 | 43.45020 | 76.81517 | 10122 ft | 277 kts | 324° |
| 2026-05-04 18:27 | 43.46313 | 76.79526 | 10264 ft | 294 kts | 300° |
| 2026-05-04 18:27 | 43.47162 | 76.76833 | 10732 ft | 314 kts | 293° |
| 2026-05-04 18:27 | 43.47981 | 76.73954 | 11191 ft | 333 kts | 292° |
| 2026-05-04 18:28 | 43.48843 | 76.70946 | 11568 ft | 352 kts | 293° |
| 2026-05-04 18:28 | 43.49774 | 76.67742 | 11985 ft | 369 kts | 293° |
| 2026-05-04 18:28 | 43.50745 | 76.64434 | 12701 ft | 377 kts | 293° |
| 2026-05-04 18:28 | 43.51740 | 76.61078 | 13583 ft | 380 kts | 295° |
| 2026-05-04 18:29 | 43.53166 | 76.58056 | 14327 ft | 382 kts | 316° |
| 2026-05-04 18:29 | 43.55292 | 76.55981 | 15144 ft | 383 kts | 336° |
| 2026-05-04 18:29 | 43.57849 | 76.54931 | 15984 ft | 384 kts | 349° |
| 2026-05-04 18:29 | 43.60461 | 76.54167 | 16753 ft | 389 kts | 349° |
| 2026-05-04 18:30 | 43.65794 | 76.52533 | 18251 ft | 398 kts | 348° |
| 2026-05-04 18:30 | 43.68489 | 76.51677 | 18974 ft | 401 kts | 347° |
| 2026-05-04 18:30 | 43.71212 | 76.50807 | 19722 ft | 405 kts | 347° |
| 2026-05-04 18:31 | 43.73943 | 76.49931 | 20406 ft | 409 kts | 347° |
| 2026-05-04 18:31 | 43.76735 | 76.49033 | 21086 ft | 413 kts | 347° |
| 2026-05-04 18:31 | 43.79542 | 76.48128 | 21773 ft | 417 kts | 346° |
| 2026-05-04 18:31 | 43.82363 | 76.47215 | 22421 ft | 420 kts | 346° |
| 2026-05-04 18:32 | 43.85217 | 76.46294 | 23065 ft | 424 kts | 346° |
| 2026-05-04 18:32 | 43.88085 | 76.45366 | 23699 ft | 428 kts | 346° |
| 2026-05-04 18:32 | 43.91003 | 76.44424 | 24295 ft | 432 kts | 346° |
| 2026-05-04 18:32 | 43.93943 | 76.43472 | 24862 ft | 437 kts | 346° |
| 2026-05-04 18:33 | 43.96881 | 76.42519 | 25407 ft | 441 kts | 346° |
| 2026-05-04 18:33 | 43.99897 | 76.41539 | 25952 ft | 446 kts | 346° |
| 2026-05-04 18:33 | 44.02903 | 76.40567 | 26484 ft | 450 kts | 347° |
| 2026-05-04 18:33 | 44.06044 | 76.40031 | 26980 ft | 456 kts | 358° |
| 2026-05-04 18:34 | 44.09202 | 76.40390 | 27504 ft | 462 kts | 9° |
| 2026-05-04 18:34 | 44.12310 | 76.41612 | 28008 ft | 468 kts | 19° |
| 2026-05-04 18:34 | 44.15328 | 76.43242 | 28512 ft | 472 kts | 20° |
| 2026-05-04 18:34 | 44.18372 | 76.44952 | 28976 ft | 476 kts | 20° |
| 2026-05-04 18:35 | 44.21466 | 76.46680 | 29449 ft | 480 kts | 20° |
| 2026-05-04 18:35 | 44.24565 | 76.48376 | 30056 ft | 479 kts | 18° |
| 2026-05-04 18:35 | 44.27745 | 76.49704 | 30787 ft | 475 kts | 11° |
| 2026-05-04 18:35 | 44.30938 | 76.50457 | 31487 ft | 471 kts | 4° |
| 2026-05-04 18:36 | 44.34183 | 76.50661 | 32131 ft | 467 kts | 356° |
| 2026-05-04 18:36 | 44.37405 | 76.50318 | 32755 ft | 464 kts | 350° |
| 2026-05-04 18:36 | 44.40576 | 76.49433 | 33388 ft | 460 kts | 343° |
| 2026-05-04 18:36 | 44.43589 | 76.48057 | 34005 ft | 456 kts | 336° |
| 2026-05-04 18:37 | 44.46493 | 76.46403 | 34593 ft | 454 kts | 335° |
| 2026-05-04 18:37 | 44.49406 | 76.44674 | 35045 ft | 453 kts | 335° |
| 2026-05-04 18:37 | 44.52271 | 76.42964 | 35461 ft | 452 kts | 335° |
| 2026-05-04 18:37 | 44.55137 | 76.41257 | 35867 ft | 451 kts | 335° |
| 2026-05-04 18:38 | 44.58019 | 76.39548 | 36243 ft | 450 kts | 335° |
| 2026-05-04 18:38 | 44.60921 | 76.37830 | 36651 ft | 450 kts | 335° |
| 2026-05-04 18:38 | 44.63799 | 76.36128 | 37100 ft | 450 kts | 335° |
| 2026-05-04 18:38 | 44.66671 | 76.34434 | 37559 ft | 449 kts | 335° |
| 2026-05-04 18:39 | 44.69515 | 76.32753 | 37981 ft | 448 kts | 335° |
| 2026-05-04 18:39 | 44.72393 | 76.31052 | 38343 ft | 447 kts | 335° |
| 2026-05-04 18:39 | 44.75222 | 76.29379 | 38618 ft | 448 kts | 335° |
| 2026-05-04 18:39 | 44.78116 | 76.27667 | 38831 ft | 450 kts | 335° |
| 2026-05-04 18:40 | 44.81001 | 76.25959 | 39039 ft | 452 kts | 335° |
| 2026-05-04 18:40 | 44.83863 | 76.24261 | 39255 ft | 453 kts | 335° |
| 2026-05-04 18:40 | 44.86766 | 76.22536 | 39454 ft | 454 kts | 335° |
| 2026-05-04 18:40 | 44.89670 | 76.20812 | 39650 ft | 456 kts | 335° |
| 2026-05-04 18:41 | 44.92612 | 76.19062 | 39808 ft | 457 kts | 335° |
| 2026-05-04 18:41 | 44.95540 | 76.17319 | 39962 ft | 458 kts | 335° |
| 2026-05-04 18:41 | 44.98446 | 76.15584 | 40093 ft | 459 kts | 335° |
| 2026-05-04 18:42 | 45.04313 | 76.12079 | 40116 ft | 460 kts | 335° |
| 2026-05-04 18:42 | 45.10208 | 76.08548 | 40119 ft | 459 kts | 335° |
| 2026-05-04 18:43 | 45.16081 | 76.05026 | 40124 ft | 459 kts | 335° |
| 2026-05-04 18:43 | 45.21933 | 76.01508 | 40124 ft | 458 kts | 335° |
| 2026-05-04 18:44 | 45.27763 | 75.97992 | 40127 ft | 458 kts | 335° |
| 2026-05-04 18:44 | 45.33623 | 75.94452 | 40126 ft | 458 kts | 335° |
| 2026-05-04 18:45 | 45.39465 | 75.90913 | 40127 ft | 458 kts | 335° |
| 2026-05-04 18:45 | 45.45319 | 75.87359 | 40129 ft | 457 kts | 335° |
| 2026-05-04 18:46 | 45.51124 | 75.83826 | 40124 ft | 457 kts | 335° |
| 2026-05-04 18:46 | 45.56950 | 75.80272 | 40134 ft | 457 kts | 335° |
| 2026-05-04 18:47 | 45.62768 | 75.76714 | 40133 ft | 456 kts | 335° |
| 2026-05-04 18:47 | 45.68596 | 75.73141 | 40131 ft | 456 kts | 335° |
| 2026-05-04 18:48 | 45.74430 | 75.69563 | 40132 ft | 456 kts | 335° |
| 2026-05-04 18:48 | 45.80232 | 75.66007 | 40129 ft | 456 kts | 335° |
| 2026-05-04 18:49 | 45.86046 | 75.62431 | 40135 ft | 455 kts | 335° |
| 2026-05-04 18:49 | 45.91820 | 75.58866 | 40132 ft | 454 kts | 335° |
| 2026-05-04 18:50 | 45.97636 | 75.55265 | 40137 ft | 454 kts | 335° |
| 2026-05-04 18:50 | 46.03410 | 75.51681 | 40134 ft | 454 kts | 335° |
| 2026-05-04 18:51 | 46.09191 | 75.48087 | 40132 ft | 454 kts | 335° |
| 2026-05-04 18:51 | 46.14945 | 75.44498 | 40137 ft | 454 kts | 335° |
| 2026-05-04 18:52 | 46.20764 | 75.40860 | 40133 ft | 454 kts | 335° |
| 2026-05-04 18:52 | 46.26528 | 75.37274 | 40133 ft | 454 kts | 335° |
| 2026-05-04 18:53 | 46.32312 | 75.33690 | 40125 ft | 454 kts | 335° |
| 2026-05-04 18:53 | 46.38061 | 75.30112 | 40130 ft | 453 kts | 334° |
| 2026-05-04 18:54 | 46.43830 | 75.26509 | 40130 ft | 453 kts | 335° |
| 2026-05-04 18:54 | 46.49622 | 75.22880 | 40141 ft | 453 kts | 334° |
| 2026-05-04 18:55 | 46.55384 | 75.19262 | 40139 ft | 453 kts | 334° |
| 2026-05-04 18:55 | 46.64037 | 75.13811 | 40150 ft | 453 kts | 335° |
| 2026-05-04 18:56 | 46.69804 | 75.10169 | 40142 ft | 453 kts | 335° |
| 2026-05-04 18:56 | 46.75568 | 75.06518 | 40143 ft | 453 kts | 335° |
| 2026-05-04 18:57 | 46.81334 | 75.02856 | 40152 ft | 453 kts | 335° |
| 2026-05-04 18:57 | 46.87090 | 74.99195 | 40154 ft | 453 kts | 335° |
| 2026-05-04 18:58 | 46.92928 | 74.95859 | 40160 ft | 453 kts | 338° |
| 2026-05-04 18:58 | 46.98812 | 74.92638 | 40158 ft | 452 kts | 338° |
| 2026-05-04 18:59 | 47.04685 | 74.89408 | 40165 ft | 452 kts | 338° |
| 2026-05-04 18:59 | 47.10545 | 74.86169 | 40173 ft | 452 kts | 338° |
| 2026-05-04 19:00 | 47.16434 | 74.82902 | 40173 ft | 452 kts | 338° |
| 2026-05-04 19:00 | 47.22294 | 74.79647 | 40180 ft | 451 kts | 338° |
| 2026-05-04 19:01 | 47.28100 | 74.76411 | 40178 ft | 449 kts | 338° |
| 2026-05-04 19:01 | 47.33926 | 74.73156 | 40175 ft | 449 kts | 338° |
| 2026-05-04 19:02 | 47.39743 | 74.69898 | 40184 ft | 448 kts | 338° |
| 2026-05-04 19:02 | 47.45557 | 74.66631 | 40184 ft | 446 kts | 338° |
| 2026-05-04 19:03 | 47.51317 | 74.63386 | 40185 ft | 445 kts | 338° |
| 2026-05-04 19:03 | 47.57076 | 74.60152 | 40183 ft | 445 kts | 338° |
| 2026-05-04 19:04 | 47.62863 | 74.56919 | 40185 ft | 444 kts | 338° |
| 2026-05-04 19:04 | 47.68601 | 74.53703 | 40192 ft | 443 kts | 338° |
| 2026-05-04 19:05 | 47.74355 | 74.50465 | 40190 ft | 441 kts | 338° |
| 2026-05-04 19:05 | 47.80039 | 74.47258 | 40189 ft | 441 kts | 338° |
| 2026-05-04 19:06 | 47.85764 | 74.44017 | 40188 ft | 440 kts | 338° |
| 2026-05-04 19:06 | 47.91450 | 74.40792 | 40187 ft | 439 kts | 338° |
| 2026-05-04 19:07 | 47.97133 | 74.37560 | 40189 ft | 438 kts | 338° |
| 2026-05-04 19:07 | 48.02820 | 74.34315 | 40191 ft | 437 kts | 337° |
| 2026-05-04 19:08 | 48.08477 | 74.31081 | 40193 ft | 437 kts | 337° |
| 2026-05-04 19:08 | 48.14127 | 74.27847 | 40196 ft | 436 kts | 337° |
| 2026-05-04 19:09 | 48.19788 | 74.24654 | 40201 ft | 436 kts | 338° |
| 2026-05-04 19:09 | 48.25459 | 74.21450 | 39936 ft | 437 kts | 337° |
| 2026-05-04 19:10 | 48.28308 | 74.19835 | 39666 ft | 436 kts | 337° |
| 2026-05-04 19:10 | 48.31121 | 74.18236 | 39396 ft | 436 kts | 337° |
| 2026-05-04 19:10 | 48.33929 | 74.16640 | 39138 ft | 436 kts | 337° |
| 2026-05-04 19:10 | 48.36780 | 74.15015 | 38861 ft | 436 kts | 337° |
| 2026-05-04 19:11 | 48.39598 | 74.13407 | 38579 ft | 437 kts | 337° |
| 2026-05-04 19:11 | 48.42446 | 74.11781 | 38273 ft | 437 kts | 337° |
| 2026-05-04 19:11 | 48.45258 | 74.10173 | 37966 ft | 437 kts | 337° |
| 2026-05-04 19:11 | 48.48104 | 74.08543 | 37654 ft | 438 kts | 338° |
| 2026-05-04 19:12 | 48.50941 | 74.06915 | 37346 ft | 438 kts | 338° |
| 2026-05-04 19:12 | 48.56630 | 74.03648 | 36736 ft | 438 kts | 338° |
| 2026-05-04 19:12 | 48.59445 | 74.02028 | 36459 ft | 439 kts | 338° |
| 2026-05-04 19:13 | 48.62289 | 74.00389 | 36226 ft | 439 kts | 338° |
| 2026-05-04 19:13 | 48.65134 | 73.98748 | 35994 ft | 440 kts | 338° |
| 2026-05-04 19:13 | 48.67989 | 73.97100 | 35759 ft | 440 kts | 338° |
| 2026-05-04 19:13 | 48.70851 | 73.95446 | 35522 ft | 440 kts | 338° |
| 2026-05-04 19:14 | 48.73689 | 73.93802 | 35286 ft | 440 kts | 338° |
| 2026-05-04 19:14 | 48.76545 | 73.92145 | 35048 ft | 439 kts | 338° |
| 2026-05-04 19:14 | 48.79366 | 73.90509 | 34810 ft | 431 kts | 338° |
| 2026-05-04 19:14 | 48.82143 | 73.88894 | 34573 ft | 429 kts | 338° |
| 2026-05-04 19:15 | 48.84918 | 73.87278 | 34313 ft | 430 kts | 338° |
| 2026-05-04 19:15 | 48.87738 | 73.85634 | 34041 ft | 431 kts | 338° |
| 2026-05-04 19:15 | 48.90537 | 73.84001 | 33777 ft | 433 kts | 338° |
| 2026-05-04 19:15 | 48.93343 | 73.82362 | 33509 ft | 434 kts | 338° |
| 2026-05-04 19:16 | 48.96154 | 73.80719 | 33247 ft | 435 kts | 338° |
| 2026-05-04 19:16 | 48.98960 | 73.79077 | 32978 ft | 435 kts | 338° |
| 2026-05-04 19:16 | 49.01760 | 73.77436 | 32715 ft | 436 kts | 338° |
| 2026-05-04 19:16 | 49.04590 | 73.75773 | 32454 ft | 437 kts | 338° |
| 2026-05-04 19:17 | 49.07412 | 73.74111 | 32191 ft | 437 kts | 338° |
| 2026-05-04 19:17 | 49.10245 | 73.72439 | 31929 ft | 437 kts | 338° |
| 2026-05-04 19:17 | 49.13086 | 73.70761 | 31666 ft | 439 kts | 338° |
| 2026-05-04 19:17 | 49.15931 | 73.69076 | 31401 ft | 440 kts | 338° |
| 2026-05-04 19:18 | 49.18797 | 73.67378 | 31136 ft | 441 kts | 337° |
| 2026-05-04 19:18 | 49.21623 | 73.65700 | 30878 ft | 442 kts | 338° |
| 2026-05-04 19:18 | 49.24493 | 73.63995 | 30612 ft | 443 kts | 337° |
| 2026-05-04 19:18 | 49.27361 | 73.62288 | 30345 ft | 444 kts | 338° |
| 2026-05-04 19:19 | 49.30215 | 73.60587 | 30081 ft | 445 kts | 337° |
| 2026-05-04 19:19 | 49.33098 | 73.58868 | 29814 ft | 446 kts | 337° |
| 2026-05-04 19:19 | 49.35995 | 73.57138 | 29548 ft | 447 kts | 337° |
| 2026-05-04 19:19 | 49.38894 | 73.55404 | 29278 ft | 447 kts | 337° |
| 2026-05-04 19:20 | 49.41756 | 73.53690 | 29010 ft | 445 kts | 337° |
| 2026-05-04 19:20 | 49.44620 | 73.51973 | 28743 ft | 444 kts | 337° |
| 2026-05-04 19:20 | 49.47500 | 73.50243 | 28478 ft | 443 kts | 337° |
| 2026-05-04 19:20 | 49.50369 | 73.48518 | 28212 ft | 441 kts | 337° |
| 2026-05-04 19:21 | 49.53199 | 73.46812 | 27950 ft | 440 kts | 337° |
| 2026-05-04 19:21 | 49.56057 | 73.45088 | 27683 ft | 438 kts | 337° |
| 2026-05-04 19:21 | 49.58853 | 73.43401 | 27421 ft | 437 kts | 337° |
| 2026-05-04 19:21 | 49.61650 | 73.41605 | 27155 ft | 436 kts | 334° |
| 2026-05-04 19:22 | 49.64373 | 73.39580 | 26890 ft | 434 kts | 331° |
| 2026-05-04 19:22 | 49.66994 | 73.37341 | 26628 ft | 433 kts | 328° |
| 2026-05-04 19:22 | 49.69538 | 73.34869 | 26361 ft | 431 kts | 324° |
| 2026-05-04 19:22 | 49.71946 | 73.32225 | 26104 ft | 429 kts | 321° |
| 2026-05-04 19:23 | 49.74276 | 73.29353 | 25844 ft | 427 kts | 318° |
| 2026-05-04 19:23 | 49.76473 | 73.26334 | 25587 ft | 425 kts | 316° |
| 2026-05-04 19:23 | 49.78642 | 73.23227 | 25324 ft | 424 kts | 316° |
| 2026-05-04 19:23 | 49.80796 | 73.20110 | 25064 ft | 423 kts | 315° |
| 2026-05-04 19:24 | 49.82922 | 73.17029 | 24807 ft | 422 kts | 316° |
| 2026-05-04 19:24 | 49.85054 | 73.13937 | 24547 ft | 420 kts | 316° |
| 2026-05-04 19:24 | 49.87194 | 73.10834 | 24283 ft | 419 kts | 315° |
| 2026-05-04 19:24 | 49.89310 | 73.07764 | 24022 ft | 418 kts | 315° |
| 2026-05-04 19:25 | 49.91411 | 73.04713 | 23759 ft | 417 kts | 315° |
| 2026-05-04 19:25 | 49.93510 | 73.01662 | 23499 ft | 416 kts | 315° |
| 2026-05-04 19:25 | 49.95620 | 72.98592 | 23241 ft | 414 kts | 315° |
| 2026-05-04 19:25 | 49.97701 | 72.95559 | 22985 ft | 413 kts | 315° |
| 2026-05-04 19:26 | 49.99789 | 72.92512 | 22730 ft | 411 kts | 315° |
| 2026-05-04 19:26 | 50.01872 | 72.89470 | 22479 ft | 410 kts | 315° |
| 2026-05-04 19:26 | 50.03956 | 72.86420 | 22220 ft | 408 kts | 315° |
| 2026-05-04 19:26 | 50.06004 | 72.83418 | 21968 ft | 407 kts | 315° |
| 2026-05-04 19:27 | 50.08032 | 72.80444 | 21719 ft | 404 kts | 315° |
| 2026-05-04 19:27 | 50.10078 | 72.77438 | 21461 ft | 402 kts | 315° |
| 2026-05-04 19:27 | 50.12097 | 72.74468 | 21221 ft | 401 kts | 315° |
| 2026-05-04 19:27 | 50.14116 | 72.71497 | 21160 ft | 400 kts | 315° |
| 2026-05-04 19:28 | 50.16133 | 72.68542 | 21154 ft | 400 kts | 316° |
| 2026-05-04 19:28 | 50.18299 | 72.65770 | 21154 ft | 402 kts | 322° |
| 2026-05-04 19:28 | 50.20618 | 72.63326 | 21152 ft | 403 kts | 327° |
| 2026-05-04 19:28 | 50.23067 | 72.61202 | 20953 ft | 403 kts | 330° |
| 2026-05-04 19:29 | 50.25533 | 72.59238 | 20698 ft | 402 kts | 331° |
| 2026-05-04 19:29 | 50.28014 | 72.57292 | 20449 ft | 401 kts | 331° |
| 2026-05-04 19:29 | 50.30502 | 72.55341 | 20195 ft | 399 kts | 331° |
| 2026-05-04 19:29 | 50.32964 | 72.53404 | 19942 ft | 397 kts | 331° |
| 2026-05-04 19:30 | 50.35430 | 72.51455 | 19688 ft | 396 kts | 331° |
| 2026-05-04 19:30 | 50.37872 | 72.49521 | 19436 ft | 394 kts | 331° |
| 2026-05-04 19:30 | 50.40286 | 72.47604 | 19190 ft | 393 kts | 331° |
| 2026-05-04 19:30 | 50.42715 | 72.45672 | 18888 ft | 391 kts | 331° |
| 2026-05-04 19:31 | 50.45153 | 72.43729 | 18507 ft | 389 kts | 331° |
| 2026-05-04 19:31 | 50.47527 | 72.41836 | 18104 ft | 386 kts | 331° |
| 2026-05-04 19:31 | 50.49902 | 72.39940 | 17695 ft | 383 kts | 331° |
| 2026-05-04 19:31 | 50.52263 | 72.38052 | 17403 ft | 375 kts | 331° |
| 2026-05-04 19:32 | 50.54551 | 72.36221 | 17255 ft | 363 kts | 331° |
| 2026-05-04 19:32 | 50.56786 | 72.34441 | 16903 ft | 358 kts | 330° |
| 2026-05-04 19:32 | 50.58979 | 72.32696 | 16555 ft | 353 kts | 330° |
| 2026-05-04 19:32 | 50.61138 | 72.30971 | 16217 ft | 348 kts | 330° |
| 2026-05-04 19:33 | 50.63255 | 72.29273 | 15882 ft | 343 kts | 330° |
| 2026-05-04 19:33 | 50.65380 | 72.27564 | 15534 ft | 338 kts | 330° |
| 2026-05-04 19:33 | 50.67443 | 72.25903 | 15135 ft | 336 kts | 330° |
| 2026-05-04 19:33 | 50.69506 | 72.24239 | 14714 ft | 334 kts | 330° |
| 2026-05-04 19:34 | 50.71593 | 72.22552 | 14299 ft | 332 kts | 330° |
| 2026-05-04 19:34 | 50.73627 | 72.20908 | 13882 ft | 331 kts | 330° |
| 2026-05-04 19:34 | 50.75648 | 72.19273 | 13464 ft | 329 kts | 330° |
| 2026-05-04 19:34 | 50.77665 | 72.17638 | 13040 ft | 327 kts | 330° |
| 2026-05-04 19:35 | 50.79700 | 72.15988 | 12612 ft | 326 kts | 329° |
| 2026-05-04 19:35 | 50.81679 | 72.14382 | 12201 ft | 324 kts | 329° |
| 2026-05-04 19:35 | 50.83672 | 72.12762 | 11777 ft | 322 kts | 330° |
| 2026-05-04 19:35 | 50.85658 | 72.11146 | 11352 ft | 321 kts | 329° |
| 2026-05-04 19:36 | 50.87637 | 72.09533 | 10926 ft | 319 kts | 330° |
| 2026-05-04 19:36 | 50.89601 | 72.07931 | 10557 ft | 316 kts | 330° |
| 2026-05-04 19:36 | 50.91545 | 72.06347 | 10290 ft | 309 kts | 330° |
| 2026-05-04 19:36 | 50.93407 | 72.04830 | 10137 ft | 299 kts | 330° |
| 2026-05-04 19:37 | 50.95237 | 72.03338 | 9968 ft | 290 kts | 329° |
| 2026-05-04 19:37 | 50.97016 | 72.01884 | 9607 ft | 289 kts | 330° |
| 2026-05-04 19:37 | 50.98795 | 72.00428 | 9269 ft | 287 kts | 330° |
| 2026-05-04 19:37 | 51.00556 | 71.98987 | 8938 ft | 285 kts | 330° |
| 2026-05-04 19:38 | 51.02320 | 71.97543 | 8607 ft | 283 kts | 330° |
| 2026-05-04 19:38 | 51.04047 | 71.96130 | 8291 ft | 281 kts | 329° |
| 2026-05-04 19:38 | 51.05790 | 71.94701 | 7976 ft | 278 kts | 329° |
| 2026-05-04 19:38 | 51.07474 | 71.93320 | 7689 ft | 274 kts | 329° |
| 2026-05-04 19:39 | 51.09150 | 71.91942 | 7388 ft | 271 kts | 329° |
| 2026-05-04 19:39 | 51.10815 | 71.90573 | 7091 ft | 268 kts | 330° |
| 2026-05-04 19:39 | 51.12461 | 71.89219 | 6805 ft | 266 kts | 329° |
| 2026-05-04 19:39 | 51.14039 | 71.87773 | 6698 ft | 253 kts | 321° |
| 2026-05-04 19:40 | 51.15351 | 71.86038 | 6581 ft | 243 kts | 313° |
| 2026-05-04 19:40 | 51.16540 | 71.84161 | 6316 ft | 240 kts | 311° |
| 2026-05-04 19:40 | 51.17691 | 71.82286 | 6032 ft | 237 kts | 311° |
| 2026-05-04 19:40 | 51.18832 | 71.80434 | 5749 ft | 228 kts | 311° |
| 2026-05-04 19:41 | 51.19818 | 71.78587 | 5544 ft | 213 kts | 296° |
| 2026-05-04 19:41 | 51.20139 | 71.76362 | 5264 ft | 202 kts | 266° |
| 2026-05-04 19:41 | 51.19765 | 71.74319 | 5073 ft | 189 kts | 237° |
| 2026-05-04 19:41 | 51.18959 | 71.72749 | 4938 ft | 179 kts | 227° |
| 2026-05-04 19:42 | 51.18103 | 71.71346 | 4809 ft | 177 kts | 225° |
| 2026-05-04 19:42 | 51.17224 | 71.69961 | 4677 ft | 176 kts | 224° |
| 2026-05-04 19:42 | 51.16357 | 71.68611 | 4545 ft | 175 kts | 224° |
| 2026-05-04 19:42 | 51.15486 | 71.67259 | 4384 ft | 174 kts | 223° |
| 2026-05-04 19:43 | 51.14625 | 71.65925 | 4208 ft | 174 kts | 223° |
| 2026-05-04 19:43 | 51.13753 | 71.64568 | 3977 ft | 173 kts | 223° |
| 2026-05-04 19:43 | 51.12911 | 71.63258 | 3735 ft | 165 kts | 222° |
| 2026-05-04 19:43 | 51.12117 | 71.62020 | 3522 ft | 156 kts | 221° |
| 2026-05-04 19:44 | 51.11344 | 71.60815 | 3326 ft | 155 kts | 221° |
| 2026-05-04 19:44 | 51.10567 | 71.59607 | 3133 ft | 154 kts | 221° |
| 2026-05-04 19:44 | 51.09801 | 71.58414 | 2933 ft | 154 kts | 221° |
| 2026-05-04 19:44 | 51.09045 | 71.57235 | 2740 ft | 153 kts | 222° |
| 2026-05-04 19:45 | 51.08287 | 71.56052 | 2541 ft | 153 kts | 223° |
| 2026-05-04 19:45 | 51.07530 | 71.54871 | 2338 ft | 152 kts | 223° |
| 2026-05-04 19:45 | 51.06773 | 71.53689 | 2129 ft | 151 kts | 224° |
| 2026-05-04 19:45 | 51.06030 | 71.52525 | 1921 ft | 151 kts | 225° |
| 2026-05-04 19:46 | 51.05288 | 71.51354 | 1708 ft | 150 kts | 225° |
| 2026-05-04 19:46 | 51.04549 | 71.50188 | 1509 ft | 150 kts | 224° |
| 2026-05-04 19:46 | 51.03801 | 71.49038 | 1343 ft | 149 kts | 224° |
| 2026-05-04 19:46 | 51.03064 | 71.47874 | 1174 ft | 144 kts | 224° |
| 2026-05-04 19:47 | 51.02497 | 71.47001 | 1176 ft | 85 kts | 225° |
| 2026-05-04 19:47 | 51.02182 | 71.46516 | 1176 ft | 49 kts | 224° |
| 2026-05-04 19:47 | 51.01955 | 71.46158 | 1176 ft | 45 kts | 224° |
| 2026-05-04 19:47 | 51.01745 | 71.45838 | 1180 ft | 30 kts | 225° |
| 2026-05-04 19:48 | 51.01694 | 71.45698 | 1180 ft | 12 kts | 275° |
| 2026-05-04 19:48 | 51.01747 | 71.45567 | 1178 ft | 16 kts | 313° |
| 2026-05-04 19:48 | 51.01838 | 71.45527 | 1177 ft | 15 kts | 26° |
| 2026-05-04 19:48 | 51.01924 | 71.45640 | 1178 ft | 17 kts | 46° |
| 2026-05-04 19:49 | 51.02025 | 71.45798 | 1176 ft | 24 kts | 45° |
| 2026-05-04 19:49 | 51.02162 | 71.46012 | 1176 ft | 31 kts | 45° |
| 2026-05-04 19:49 | 51.02288 | 71.46209 | 1176 ft | 18 kts | 38° |
| 2026-05-04 19:49 | 51.02386 | 71.46183 | 1176 ft | 15 kts | 322° |
| 2026-05-04 19:50 | 51.02463 | 71.46104 | 1176 ft | 11 kts | 346° |
| 2026-05-04 19:50 | 51.02535 | 71.46091 | 1176 ft | 9 kts | 358° |
| 2026-05-04 19:50 | 51.02597 | 71.46088 | 1176 ft | 4 kts | 359° |
| 2026-05-04 19:50 | 51.02605 | 71.46088 | 1176 ft | 0 kts | 359° |